createdAt,value
2023-05-16T00:01:01.501Z,12.30
2023-05-16T00:03:28.328Z,12.20
2023-05-16T00:05:56.026Z,12.23
2023-05-16T00:08:22.930Z,12.12
2023-05-16T00:10:49.564Z,12.16
2023-05-16T00:13:16.256Z,12.29
2023-05-16T00:15:44.232Z,12.45
2023-05-16T00:18:14.755Z,12.25
2023-05-16T00:20:41.823Z,12.20
2023-05-16T00:23:08.727Z,12.20
2023-05-16T00:25:36.536Z,12.15
2023-05-16T00:28:03.435Z,12.09
2023-05-16T00:30:30.781Z,12.13
2023-05-16T00:32:57.525Z,12.19
2023-05-16T00:35:24.304Z,12.36
2023-05-16T00:37:51.316Z,12.42
2023-05-16T00:40:18.111Z,12.30
2023-05-16T00:42:44.870Z,12.23
2023-05-16T00:45:12.078Z,12.41
2023-05-16T00:47:38.839Z,12.28
2023-05-16T00:50:07.285Z,12.28
2023-05-16T00:52:34.135Z,12.23
2023-05-16T00:55:03.900Z,12.18
2023-05-16T00:57:30.871Z,12.32
2023-05-16T00:59:57.934Z,12.27
2023-05-16T01:02:28.542Z,12.24
2023-05-16T01:04:55.445Z,12.36
2023-05-16T01:07:23.586Z,12.19
2023-05-16T01:09:50.317Z,12.39
2023-05-16T01:12:30.001Z,12.11
2023-05-16T01:15:06.668Z,11.96
2023-05-16T01:17:50.892Z,11.63
2023-05-16T01:20:55.830Z,11.82
2023-05-16T01:24:01.427Z,11.88
2023-05-16T01:26:29.952Z,11.75
2023-05-16T01:28:57.304Z,11.82
2023-05-16T01:31:24.452Z,11.95
2023-05-16T01:33:51.367Z,11.98
2023-05-16T01:36:17.946Z,12.09
2023-05-16T01:38:57.231Z,12.10
2023-05-16T01:42:07.859Z,12.18
2023-05-16T01:44:41.343Z,11.97
2023-05-16T01:47:16.576Z,11.66
2023-05-16T01:49:56.163Z,11.37
2023-05-16T01:52:28.488Z,10.84
2023-05-16T01:54:57.939Z,10.72
2023-05-16T01:57:27.044Z,10.66
2023-05-16T01:59:53.850Z,10.40
2023-05-16T02:02:21.066Z,10.58
2023-05-16T02:04:47.733Z,10.60
2023-05-16T02:07:15.955Z,10.69
2023-05-16T02:09:45.135Z,10.71
2023-05-16T02:12:11.728Z,10.73
2023-05-16T02:14:38.355Z,10.90
2023-05-16T02:17:06.462Z,10.76
2023-05-16T02:19:33.126Z,10.72
2023-05-16T02:22:00.749Z,10.83
2023-05-16T02:24:27.457Z,10.72
2023-05-16T02:26:55.539Z,10.70
2023-05-16T02:29:22.196Z,10.81
2023-05-16T02:31:49.651Z,10.81
2023-05-16T02:34:16.783Z,10.92
2023-05-16T02:36:43.560Z,10.84
2023-05-16T02:39:10.461Z,10.68
2023-05-16T02:41:37.526Z,10.90
2023-05-16T02:44:04.287Z,10.79
2023-05-16T02:46:33.555Z,10.71
2023-05-16T02:49:01.596Z,10.81
2023-05-16T02:51:29.081Z,11.08
2023-05-16T02:54:02.678Z,11.07
2023-05-16T02:56:29.582Z,11.00
2023-05-16T02:58:56.517Z,11.18
2023-05-16T03:01:23.666Z,11.10
2023-05-16T03:03:51.091Z,11.04
2023-05-16T03:06:17.923Z,10.88
2023-05-16T03:08:44.541Z,10.61
2023-05-16T03:11:11.229Z,10.52
2023-05-16T03:13:37.817Z,10.31
2023-05-16T03:16:06.317Z,10.40
2023-05-16T03:18:33.311Z,10.33
2023-05-16T03:21:00.037Z,10.44
2023-05-16T03:23:27.309Z,10.43
2023-05-16T03:25:56.196Z,10.60
2023-05-16T03:28:22.841Z,10.45
2023-05-16T03:30:49.453Z,10.68
2023-05-16T03:33:16.243Z,10.41
2023-05-16T03:35:44.039Z,10.40
2023-05-16T03:38:11.086Z,10.40
2023-05-16T03:40:37.778Z,10.39
2023-05-16T03:43:04.503Z,10.32
2023-05-16T03:45:31.722Z,10.53
2023-05-16T03:47:58.506Z,10.50
2023-05-16T03:50:25.571Z,10.60
2023-05-16T03:52:55.076Z,10.50
2023-05-16T03:55:21.819Z,10.60
2023-05-16T03:57:50.170Z,10.45
2023-05-16T04:00:17.875Z,10.41
2023-05-16T04:02:45.001Z,10.40
2023-05-16T04:05:14.925Z,10.54
2023-05-16T04:07:41.601Z,10.60
2023-05-16T04:10:12.234Z,10.56
2023-05-16T04:12:38.944Z,10.45
2023-05-16T04:15:07.357Z,10.35
2023-05-16T04:17:34.836Z,10.59
2023-05-16T04:20:01.704Z,10.63
2023-05-16T04:22:28.601Z,10.62
2023-05-16T04:24:55.361Z,10.66
2023-05-16T04:27:22.029Z,10.70
2023-05-16T04:29:48.582Z,10.75
2023-05-16T04:32:15.470Z,10.74
2023-05-16T04:34:44.305Z,10.63
2023-05-16T04:37:10.924Z,10.44
2023-05-16T04:39:38.124Z,10.41
2023-05-16T04:42:05.729Z,10.61
2023-05-16T04:44:32.418Z,10.74
2023-05-16T04:46:59.599Z,10.72
2023-05-16T04:49:26.345Z,10.60
2023-05-16T04:51:53.256Z,10.66
2023-05-16T04:54:19.837Z,10.46
2023-05-16T04:56:46.541Z,10.21
2023-05-16T04:59:13.179Z,10.18
2023-05-16T05:01:40.006Z,10.19
2023-05-16T05:04:06.792Z,10.11
2023-05-16T05:06:33.608Z,10.21
2023-05-16T05:09:00.346Z,10.06
2023-05-16T05:11:27.477Z,9.94
2023-05-16T05:13:54.404Z,10.07
2023-05-16T05:16:21.141Z,10.07
2023-05-16T05:18:47.863Z,9.89
2023-05-16T05:21:14.670Z,9.90
2023-05-16T05:23:41.473Z,10.05
2023-05-16T05:26:08.272Z,10.07
2023-05-16T05:28:34.891Z,10.23
2023-05-16T05:31:01.770Z,10.32
2023-05-16T05:33:29.697Z,10.28
2023-05-16T05:35:56.825Z,10.06
2023-05-16T05:38:23.507Z,10.42
2023-05-16T05:40:50.119Z,10.43
2023-05-16T05:43:17.094Z,10.40
2023-05-16T05:45:44.495Z,10.40
2023-05-16T05:48:12.501Z,10.07
2023-05-16T05:50:39.462Z,10.07
2023-05-16T05:53:06.029Z,10.35
2023-05-16T05:55:32.623Z,10.36
2023-05-16T05:57:59.269Z,10.31
2023-05-16T06:00:25.988Z,10.30
2023-05-16T06:02:52.910Z,10.16
2023-05-16T06:05:19.944Z,10.27
2023-05-16T06:07:46.621Z,10.44
2023-05-16T06:10:13.571Z,10.21
2023-05-16T06:12:40.239Z,10.38
2023-05-16T06:15:07.734Z,10.54
2023-05-16T06:17:34.516Z,10.57
2023-05-16T06:20:01.743Z,10.42
2023-05-16T06:22:28.476Z,10.56
2023-05-16T06:24:55.109Z,10.79
2023-05-16T06:27:21.687Z,10.86
2023-05-16T06:29:48.269Z,10.91
2023-05-16T06:32:14.965Z,10.58
2023-05-16T06:34:41.664Z,10.72
2023-05-16T06:37:08.298Z,10.72
2023-05-16T06:39:34.867Z,10.83
2023-05-16T06:42:01.614Z,10.97
2023-05-16T06:44:32.009Z,10.99
2023-05-16T06:46:58.989Z,10.87
2023-05-16T06:49:25.819Z,10.92
2023-05-16T06:51:52.566Z,11.14
2023-05-16T06:54:19.225Z,11.32
2023-05-16T06:56:46.054Z,11.36
2023-05-16T06:59:12.776Z,11.26
2023-05-16T07:01:39.781Z,11.27
2023-05-16T07:04:06.736Z,11.18
2023-05-16T07:06:33.776Z,11.18
2023-05-16T07:09:00.629Z,11.24
2023-05-16T07:11:27.301Z,11.06
2023-05-16T07:13:54.155Z,11.13
2023-05-16T07:16:20.981Z,11.21
2023-05-16T07:18:47.679Z,11.43
2023-05-16T07:21:14.437Z,11.18
2023-05-16T07:23:41.668Z,11.34
2023-05-16T07:26:08.711Z,11.54
2023-05-16T07:28:35.552Z,11.43
2023-05-16T07:31:02.335Z,11.40
2023-05-16T07:33:29.004Z,11.53
2023-05-16T07:36:07.804Z,11.75
2023-05-16T07:38:42.327Z,11.98
2023-05-16T07:41:09.307Z,11.97
2023-05-16T07:43:36.828Z,11.79
2023-05-16T07:46:03.592Z,11.69
2023-05-16T07:48:30.415Z,11.39
2023-05-16T07:50:57.099Z,11.78
2023-05-16T07:53:23.913Z,11.97
2023-05-16T07:55:50.900Z,12.19
2023-05-16T07:58:18.412Z,12.13
2023-05-16T08:00:45.538Z,12.52
2023-05-16T08:03:12.667Z,12.61
2023-05-16T08:05:39.971Z,13.03
2023-05-16T08:08:06.850Z,13.07
2023-05-16T08:10:33.654Z,12.98
2023-05-16T08:13:00.582Z,13.22
2023-05-16T08:15:28.310Z,13.01
2023-05-16T08:17:58.266Z,12.30
2023-05-16T08:20:28.142Z,12.35
2023-05-16T08:22:55.350Z,12.38
2023-05-16T08:25:22.099Z,12.22
2023-05-16T08:27:50.694Z,12.32
2023-05-16T08:30:17.485Z,12.81
2023-05-16T08:32:44.307Z,13.09
2023-05-16T08:35:14.431Z,13.44
2023-05-16T08:37:41.689Z,13.49
2023-05-16T08:40:14.282Z,13.08
2023-05-16T08:42:42.348Z,13.16
2023-05-16T08:45:10.739Z,13.10
2023-05-16T08:47:41.582Z,12.94
2023-05-16T08:50:14.353Z,12.66
2023-05-16T08:52:43.599Z,12.62
2023-05-16T08:55:13.320Z,12.81
2023-05-16T08:57:41.045Z,13.44
2023-05-16T09:00:14.464Z,13.60
2023-05-16T09:02:43.421Z,13.04
2023-05-16T09:05:14.347Z,13.12
2023-05-16T09:07:42.485Z,12.67
2023-05-16T09:10:11.986Z,12.15
2023-05-16T09:12:40.971Z,12.22
2023-05-16T09:15:09.064Z,12.50
2023-05-16T09:17:44.177Z,13.21
2023-05-16T09:20:19.421Z,13.57
2023-05-16T09:22:56.970Z,13.67
2023-05-16T09:25:30.228Z,13.72
2023-05-16T09:28:01.336Z,13.98
2023-05-16T09:30:31.502Z,13.77
2023-05-16T09:32:59.209Z,13.68
2023-05-16T09:35:43.129Z,14.43
2023-05-16T09:38:16.709Z,14.44
2023-05-16T09:40:44.481Z,14.06
2023-05-16T09:43:16.257Z,14.02
2023-05-16T09:45:47.599Z,14.17
2023-05-16T09:48:15.941Z,14.68
2023-05-16T09:50:49.915Z,14.92
2023-05-16T09:53:16.816Z,14.74
2023-05-16T09:55:43.736Z,14.67
2023-05-16T09:58:17.932Z,14.87
2023-05-16T10:00:45.371Z,15.05
2023-05-16T10:03:12.607Z,14.72
2023-05-16T10:05:39.710Z,13.96
2023-05-16T10:08:06.782Z,14.25
2023-05-16T10:10:38.554Z,14.41
2023-05-16T10:13:07.277Z,14.17
2023-05-16T10:15:37.906Z,14.94
2023-05-16T10:18:11.836Z,14.81
2023-05-16T10:20:41.643Z,14.92
2023-05-16T10:23:09.516Z,14.75
2023-05-16T10:25:41.803Z,14.77
2023-05-16T10:28:09.465Z,14.48
2023-05-16T10:30:37.500Z,14.40
2023-05-16T10:33:04.709Z,14.69
2023-05-16T10:35:33.037Z,14.35
2023-05-16T10:38:01.148Z,14.55
2023-05-16T10:40:29.295Z,14.36
2023-05-16T10:43:07.287Z,14.85
2023-05-16T10:45:34.902Z,14.62
2023-05-16T10:48:07.020Z,14.43
2023-05-16T10:50:46.372Z,14.64
2023-05-16T10:53:19.292Z,14.53
2023-05-16T10:55:51.360Z,14.70
2023-05-16T10:58:38.525Z,14.69
2023-05-16T11:01:36.287Z,15.02
2023-05-16T11:04:07.478Z,15.24
2023-05-16T11:06:43.497Z,15.57
2023-05-16T11:09:13.759Z,15.21
2023-05-16T11:11:40.690Z,15.89
2023-05-16T11:14:08.165Z,15.94
2023-05-16T11:16:36.038Z,15.70
2023-05-16T11:19:09.254Z,15.50
2023-05-16T11:22:24.016Z,15.80
2023-05-16T11:24:53.747Z,15.99
2023-05-16T11:27:27.863Z,15.70
2023-05-16T11:30:01.871Z,15.72
2023-05-16T11:32:31.285Z,15.68
2023-05-16T11:34:58.495Z,15.85
2023-05-16T11:37:25.246Z,15.76
2023-05-16T11:39:52.019Z,15.40
2023-05-16T11:42:18.759Z,15.36
2023-05-16T11:44:45.877Z,15.61
2023-05-16T11:47:12.845Z,15.27
2023-05-16T11:49:39.700Z,15.98
2023-05-16T11:52:09.544Z,16.22
2023-05-16T11:54:36.547Z,16.64
2023-05-16T11:57:03.330Z,16.39
2023-05-16T11:59:30.087Z,16.63
2023-05-16T12:01:56.727Z,16.78
2023-05-16T12:04:24.471Z,16.26
2023-05-16T12:06:59.908Z,16.59
2023-05-16T12:09:26.682Z,16.02
2023-05-16T12:11:53.420Z,16.54
2023-05-16T12:14:20.507Z,16.90
2023-05-16T12:16:52.126Z,16.52
2023-05-16T12:19:19.421Z,16.10
2023-05-16T12:21:46.221Z,16.12
2023-05-16T12:24:13.075Z,16.03
2023-05-16T12:26:41.307Z,16.87
2023-05-16T12:29:08.368Z,16.85
2023-05-16T12:31:40.909Z,17.30
2023-05-16T12:34:19.286Z,16.83
2023-05-16T12:36:51.634Z,17.66
2023-05-16T12:39:18.265Z,17.46
2023-05-16T12:41:44.885Z,17.01
2023-05-16T12:44:13.498Z,15.92
2023-05-16T12:46:51.979Z,16.03
2023-05-16T12:49:22.678Z,15.96
2023-05-16T12:51:58.086Z,15.30
2023-05-16T12:54:25.493Z,15.91
2023-05-16T12:56:52.210Z,16.81
2023-05-16T12:59:20.271Z,17.42
2023-05-16T13:01:47.125Z,17.06
2023-05-16T13:04:19.474Z,17.19
2023-05-16T13:06:58.685Z,16.47
2023-05-16T13:09:29.902Z,15.41
2023-05-16T13:11:59.652Z,15.77
2023-05-16T13:14:27.018Z,15.64
2023-05-16T13:16:53.638Z,15.67
2023-05-16T13:19:21.498Z,15.58
2023-05-16T13:21:48.279Z,16.06
2023-05-16T13:24:14.937Z,16.38
2023-05-16T13:26:41.774Z,16.96
2023-05-16T13:29:11.449Z,17.09
2023-05-16T13:31:38.125Z,16.75
2023-05-16T13:34:04.734Z,16.31
2023-05-16T13:36:41.593Z,16.46
2023-05-16T13:39:18.573Z,16.80
2023-05-16T13:41:47.297Z,17.04
2023-05-16T13:44:15.523Z,16.89
2023-05-16T13:46:42.366Z,16.90
2023-05-16T13:49:08.967Z,15.89
2023-05-16T13:51:35.857Z,16.10
2023-05-16T13:54:02.523Z,17.17
2023-05-16T13:56:29.198Z,17.55
2023-05-16T13:59:03.783Z,16.96
2023-05-16T14:01:33.635Z,17.07
2023-05-16T14:04:00.374Z,16.66
2023-05-16T14:06:27.024Z,16.25
2023-05-16T14:08:53.801Z,15.87
2023-05-16T14:11:23.151Z,15.39
2023-05-16T14:13:49.800Z,15.54
2023-05-16T14:16:16.433Z,15.26
2023-05-16T14:18:43.166Z,15.24
2023-05-16T14:21:10.267Z,15.48
2023-05-16T14:23:37.097Z,15.21
2023-05-16T14:26:06.945Z,14.86
2023-05-16T14:28:34.359Z,15.36
2023-05-16T14:31:02.506Z,16.00
2023-05-16T14:33:29.171Z,16.57
2023-05-16T14:35:56.766Z,16.86
2023-05-16T14:38:23.366Z,16.52
2023-05-16T14:40:50.128Z,17.33
2023-05-16T14:43:17.381Z,17.07
2023-05-16T14:45:44.055Z,17.10
2023-05-16T14:48:10.830Z,17.35
2023-05-16T14:50:37.633Z,17.31
2023-05-16T14:53:04.457Z,17.68
2023-05-16T14:55:31.665Z,16.72
2023-05-16T14:58:00.030Z,17.19
2023-05-16T15:00:27.850Z,17.17
2023-05-16T15:02:55.443Z,17.64
2023-05-16T15:05:22.755Z,17.88
2023-05-16T15:07:50.080Z,17.43
2023-05-16T15:10:17.334Z,17.61
2023-05-16T15:12:43.974Z,17.59
2023-05-16T15:15:12.265Z,16.57
2023-05-16T15:17:42.592Z,16.21
2023-05-16T15:20:13.214Z,16.18
2023-05-16T15:22:41.101Z,16.37
2023-05-16T15:25:08.978Z,16.62
2023-05-16T15:27:35.740Z,16.44
2023-05-16T15:30:02.741Z,16.10
2023-05-16T15:32:30.067Z,15.87
2023-05-16T15:34:57.857Z,15.84
2023-05-16T15:37:24.592Z,15.97
2023-05-16T15:39:51.344Z,15.96
2023-05-16T15:42:20.093Z,15.98
2023-05-16T15:44:47.196Z,15.99
2023-05-16T15:47:14.045Z,15.90
2023-05-16T15:49:41.612Z,15.67
2023-05-16T15:52:08.773Z,15.69
2023-05-16T15:54:36.370Z,15.70
2023-05-16T15:57:03.189Z,15.55
2023-05-16T15:59:29.897Z,15.40
2023-05-16T16:01:56.637Z,15.32
2023-05-16T16:04:23.713Z,15.37
2023-05-16T16:06:50.681Z,15.28
2023-05-16T16:09:17.604Z,15.53
2023-05-16T16:11:44.347Z,15.28
2023-05-16T16:14:11.251Z,15.91
2023-05-16T16:16:40.870Z,15.90
2023-05-16T16:19:08.531Z,15.96
2023-05-16T16:21:35.837Z,15.77
2023-05-16T16:24:02.549Z,15.65
2023-05-16T16:26:29.269Z,15.45
2023-05-16T16:28:55.920Z,15.44
2023-05-16T16:31:22.715Z,15.77
2023-05-16T16:33:49.480Z,15.38
2023-05-16T16:36:17.291Z,15.32
2023-05-16T16:38:44.126Z,15.16
2023-05-16T16:41:11.335Z,15.11
2023-05-16T16:43:41.015Z,15.32
2023-05-16T16:46:07.899Z,15.49
2023-05-16T16:48:35.052Z,15.21
2023-05-16T16:51:02.802Z,15.00
2023-05-16T16:53:30.474Z,14.92
2023-05-16T16:55:57.142Z,14.91
2023-05-16T16:58:23.875Z,14.35
2023-05-16T17:00:50.614Z,14.45
2023-05-16T17:03:18.481Z,14.46
2023-05-16T17:05:45.442Z,14.36
2023-05-16T17:08:12.307Z,14.29
2023-05-16T17:10:39.437Z,14.38
2023-05-16T17:13:10.240Z,14.55
2023-05-16T17:15:37.677Z,14.48
2023-05-16T17:18:07.477Z,14.24
2023-05-16T17:20:35.164Z,14.17
2023-05-16T17:23:02.932Z,14.02
2023-05-16T17:25:30.202Z,14.18
2023-05-16T17:27:57.130Z,14.24
2023-05-16T17:30:23.722Z,14.34
2023-05-16T17:32:50.400Z,13.95
2023-05-16T17:35:17.184Z,14.03
2023-05-16T17:37:44.269Z,14.06
2023-05-16T17:40:16.660Z,13.83
2023-05-16T17:42:44.520Z,13.82
2023-05-16T17:45:13.190Z,13.99
2023-05-16T17:47:40.591Z,13.99
2023-05-16T17:50:09.944Z,13.47
2023-05-16T17:52:39.398Z,13.50
2023-05-16T17:55:10.897Z,13.45
2023-05-16T17:57:37.765Z,13.75
2023-05-16T18:00:05.854Z,13.60
2023-05-16T18:02:32.927Z,13.57
2023-05-16T18:04:59.832Z,13.46
2023-05-16T18:07:27.262Z,13.31
2023-05-16T18:09:54.455Z,13.33
2023-05-16T18:12:21.361Z,13.18
2023-05-16T18:14:48.163Z,13.45
2023-05-16T18:17:14.971Z,13.20
2023-05-16T18:19:41.796Z,12.86
2023-05-16T18:22:08.896Z,12.90
2023-05-16T18:24:35.841Z,13.15
2023-05-16T18:27:03.263Z,12.85
2023-05-16T18:29:30.323Z,12.81
2023-05-16T18:31:57.832Z,12.86
2023-05-16T18:34:24.574Z,12.65
2023-05-16T18:36:51.287Z,12.90
2023-05-16T18:39:18.981Z,12.58
2023-05-16T18:41:48.313Z,12.70
2023-05-16T18:44:17.979Z,12.72
2023-05-16T18:46:46.495Z,12.52
2023-05-16T18:49:14.476Z,12.72
2023-05-16T18:51:41.657Z,12.51
2023-05-16T18:54:08.398Z,12.67
2023-05-16T18:56:35.459Z,12.72
2023-05-16T18:59:02.322Z,12.66
2023-05-16T19:01:29.063Z,12.66
2023-05-16T19:03:56.128Z,12.78
2023-05-16T19:06:23.202Z,12.63
2023-05-16T19:08:49.917Z,12.43
2023-05-16T19:11:17.860Z,12.57
2023-05-16T19:13:45.332Z,12.63
2023-05-16T19:16:12.046Z,12.61
2023-05-16T19:18:39.117Z,12.55
2023-05-16T19:21:07.764Z,12.62
2023-05-16T19:23:34.434Z,12.32
2023-05-16T19:26:01.274Z,12.30
2023-05-16T19:28:27.940Z,12.30
2023-05-16T19:30:54.602Z,12.39
2023-05-16T19:33:21.749Z,12.31
2023-05-16T19:35:51.363Z,12.29
2023-05-16T19:38:23.825Z,12.21
2023-05-16T19:40:52.478Z,12.42
2023-05-16T19:43:19.352Z,12.47
2023-05-16T19:45:46.087Z,12.21
2023-05-16T19:48:12.808Z,12.19
2023-05-16T19:50:39.847Z,12.08
2023-05-16T19:53:06.558Z,12.21
2023-05-16T19:55:35.159Z,12.17
2023-05-16T19:58:02.578Z,11.98
2023-05-16T20:00:29.393Z,12.33
2023-05-16T20:02:56.124Z,12.20
2023-05-16T20:05:23.432Z,12.29
2023-05-16T20:07:50.507Z,12.14
2023-05-16T20:10:17.893Z,12.37
2023-05-16T20:12:45.761Z,12.37
2023-05-16T20:15:12.734Z,12.43
2023-05-16T20:17:40.523Z,12.14
2023-05-16T20:20:09.441Z,12.19
2023-05-16T20:22:41.380Z,12.20
2023-05-16T20:25:09.742Z,12.23
2023-05-16T20:27:37.787Z,12.31
2023-05-16T20:30:06.555Z,12.40
2023-05-16T20:32:33.535Z,12.27
2023-05-16T20:35:01.267Z,12.30
2023-05-16T20:37:27.980Z,12.44
2023-05-16T20:39:54.692Z,12.44
2023-05-16T20:42:21.777Z,12.32
2023-05-16T20:44:48.598Z,12.34
2023-05-16T20:47:16.800Z,12.04
2023-05-16T20:49:43.725Z,12.09
2023-05-16T20:52:10.424Z,12.32
2023-05-16T20:54:37.086Z,12.25
2023-05-16T20:57:04.136Z,12.25
2023-05-16T20:59:30.741Z,11.87
2023-05-16T21:01:57.538Z,11.84
2023-05-16T21:04:24.390Z,11.88
2023-05-16T21:06:51.438Z,12.08
2023-05-16T21:09:18.042Z,12.22
2023-05-16T21:11:44.705Z,11.77
2023-05-16T21:14:11.441Z,12.04
2023-05-16T21:16:38.176Z,11.62
2023-05-16T21:19:05.097Z,11.84
2023-05-16T21:21:32.228Z,11.98
2023-05-16T21:23:58.945Z,11.61
2023-05-16T21:26:26.078Z,11.53
2023-05-16T21:28:55.340Z,11.83
2023-05-16T21:31:23.082Z,11.61
2023-05-16T21:33:52.060Z,11.55
2023-05-16T21:36:22.859Z,11.50
2023-05-16T21:38:49.481Z,11.20
2023-05-16T21:41:18.056Z,11.21
2023-05-16T21:43:44.827Z,11.41
2023-05-16T21:46:11.556Z,11.51
2023-05-16T21:48:38.326Z,11.65
2023-05-16T21:51:05.068Z,11.59
2023-05-16T21:53:31.747Z,11.54
2023-05-16T21:55:59.677Z,11.62
2023-05-16T21:58:26.264Z,11.66
2023-05-16T22:00:52.879Z,11.61
2023-05-16T22:03:21.117Z,11.51
2023-05-16T22:05:47.941Z,11.56
2023-05-16T22:08:14.710Z,11.60
2023-05-16T22:10:41.687Z,11.47
2023-05-16T22:13:08.561Z,11.39
2023-05-16T22:15:35.214Z,11.28
2023-05-16T22:18:02.399Z,11.19
2023-05-16T22:20:29.720Z,11.11
2023-05-16T22:22:56.805Z,11.17
2023-05-16T22:25:23.960Z,11.20
2023-05-16T22:27:50.610Z,11.16
2023-05-16T22:30:17.695Z,11.22
2023-05-16T22:32:46.754Z,11.22
2023-05-16T22:35:14.126Z,11.16
2023-05-16T22:37:40.836Z,11.03
2023-05-16T22:40:08.695Z,10.89
2023-05-16T22:42:37.255Z,10.93
2023-05-16T22:45:04.191Z,10.88
2023-05-16T22:47:30.943Z,10.81
2023-05-16T22:49:57.660Z,10.88
2023-05-16T22:52:24.437Z,10.93
2023-05-16T22:54:51.146Z,10.82
2023-05-16T22:57:17.910Z,10.62
2023-05-16T22:59:44.750Z,10.61
2023-05-16T23:02:11.427Z,10.63
2023-05-16T23:04:38.258Z,10.68
2023-05-16T23:07:05.570Z,10.62
2023-05-16T23:09:32.235Z,10.60
2023-05-16T23:11:59.168Z,10.68
2023-05-16T23:14:26.285Z,10.72
2023-05-16T23:16:53.009Z,10.62
2023-05-16T23:19:19.797Z,10.69
2023-05-16T23:21:46.779Z,10.55
2023-05-16T23:24:13.510Z,10.49
2023-05-16T23:26:40.208Z,10.57
2023-05-16T23:29:07.685Z,10.70
2023-05-16T23:31:34.347Z,10.64
2023-05-16T23:34:01.124Z,10.48
2023-05-16T23:36:27.927Z,10.43
2023-05-16T23:38:54.693Z,10.29
2023-05-16T23:41:21.453Z,10.38
2023-05-16T23:43:48.500Z,10.39
2023-05-16T23:46:15.363Z,10.52
2023-05-16T23:48:42.274Z,10.56
2023-05-16T23:51:18.228Z,10.49
2023-05-16T23:53:44.880Z,10.57
2023-05-16T23:56:11.691Z,10.62
2023-05-16T23:58:38.416Z,10.44
